Webcam

2018/11/16 10:20 EBBR 161020Z 13003KT 090V180 0500 R25L/0900N R25R/1400U R01/0900U -DZ FG FEW001 BKN002 05/05 Q1027 NOSIG

Webcam

--- Refresh now ---